PBD1284 ULLI-UWLL
Flight info
| Callsign | PBD1284 |
|---|---|
| Flight time | N/A |
| Altitude | 35000 |
| Route | BULIL2E/28R SUGIN T873 NIRGI T73 DESUD P164 ROKUR T784 OTKOL T787 OKSUD T778 TERDI |
| Aircraft | B738/M-VGDW/C |
Departure
| Time | N/A |
|---|---|
| Airport | Pulkovo Airport (ULLI) |
Arrival
| Time | 2026-04-30 18:49 |
|---|---|
| Airport | Ulyanovsk Baratayevka Airport (UWLL) |
| Time | Latitude | Longitude | Altitude | Speed | Heading |
|---|---|---|---|---|---|
| 2026-04-30 17:39 | 57.36863 | 38.09366 | 35209 ft | 494 kts | 112° |
| 2026-04-30 17:42 | 57.23165 | 38.67477 | 35184 ft | 493 kts | 112° |
| 2026-04-30 17:43 | 57.16502 | 38.95168 | 35183 ft | 494 kts | 112° |
| 2026-04-30 17:44 | 57.08105 | 39.29606 | 35187 ft | 492 kts | 111° |
| 2026-04-30 17:47 | 56.95489 | 39.80338 | 35183 ft | 490 kts | 112° |
| 2026-04-30 17:48 | 56.85573 | 40.19405 | 35177 ft | 490 kts | 112° |
| 2026-04-30 17:50 | 56.74647 | 40.61679 | 35181 ft | 491 kts | 112° |
| 2026-04-30 17:52 | 56.65942 | 40.94785 | 35177 ft | 491 kts | 112° |
| 2026-04-30 17:53 | 56.57271 | 41.21373 | 35163 ft | 498 kts | 124° |
| 2026-04-30 17:54 | 56.51057 | 41.43035 | 35184 ft | 490 kts | 111° |
| 2026-04-30 17:56 | 56.39628 | 41.87748 | 35165 ft | 490 kts | 111° |
| 2026-04-30 17:58 | 56.30946 | 42.21127 | 35157 ft | 491 kts | 112° |
| 2026-04-30 18:00 | 56.19218 | 42.65440 | 35157 ft | 491 kts | 112° |
| 2026-04-30 18:01 | 56.12001 | 42.92283 | 35159 ft | 491 kts | 112° |
| 2026-04-30 18:02 | 56.03091 | 43.24992 | 35157 ft | 484 kts | 112° |
| 2026-04-30 18:04 | 55.94181 | 43.57250 | 35159 ft | 485 kts | 112° |
| 2026-04-30 18:06 | 55.82194 | 43.99937 | 35152 ft | 486 kts | 113° |
| 2026-04-30 18:08 | 55.71493 | 44.37389 | 35151 ft | 487 kts | 113° |
| 2026-04-30 18:10 | 55.59119 | 44.79962 | 35154 ft | 487 kts | 114° |
| 2026-04-30 18:11 | 55.50423 | 44.98118 | 35137 ft | 496 kts | 135° |
| 2026-04-30 18:11 | 55.42907 | 45.10298 | 35180 ft | 491 kts | 134° |
| 2026-04-30 18:13 | 55.30380 | 45.30565 | 35306 ft | 491 kts | 134° |
| 2026-04-30 18:13 | 55.23712 | 45.41278 | 34364 ft | 482 kts | 134° |
| 2026-04-30 18:14 | 55.18031 | 45.50362 | 33130 ft | 468 kts | 134° |
| 2026-04-30 18:15 | 55.10954 | 45.61631 | 31516 ft | 454 kts | 134° |
| 2026-04-30 18:15 | 55.04052 | 45.72569 | 30145 ft | 441 kts | 135° |
| 2026-04-30 18:16 | 54.94848 | 45.87075 | 29438 ft | 465 kts | 136° |
| 2026-04-30 18:17 | 54.92469 | 45.90808 | 28521 ft | 457 kts | 136° |
| 2026-04-30 18:17 | 54.90149 | 45.94444 | 27711 ft | 438 kts | 137° |
| 2026-04-30 18:17 | 54.85768 | 46.01287 | 26490 ft | 422 kts | 137° |
| 2026-04-30 18:18 | 54.83611 | 46.04647 | 25914 ft | 422 kts | 137° |
| 2026-04-30 18:18 | 54.81419 | 46.08058 | 25349 ft | 421 kts | 137° |
| 2026-04-30 18:18 | 54.79261 | 46.11403 | 24847 ft | 418 kts | 138° |
| 2026-04-30 18:18 | 54.77023 | 46.14551 | 24249 ft | 412 kts | 140° |
| 2026-04-30 18:19 | 54.74832 | 46.17587 | 23643 ft | 392 kts | 140° |
| 2026-04-30 18:19 | 54.72739 | 46.20479 | 23009 ft | 377 kts | 140° |
| 2026-04-30 18:19 | 54.70751 | 46.23221 | 22413 ft | 364 kts | 140° |
| 2026-04-30 18:19 | 54.68782 | 46.25935 | 21876 ft | 358 kts | 140° |
| 2026-04-30 18:20 | 54.66898 | 46.28650 | 21383 ft | 359 kts | 144° |
| 2026-04-30 18:20 | 54.64566 | 46.30275 | 20838 ft | 359 kts | 171° |
| 2026-04-30 18:20 | 54.62135 | 46.30955 | 20481 ft | 354 kts | 172° |
| 2026-04-30 18:20 | 54.59721 | 46.31607 | 20045 ft | 352 kts | 172° |
| 2026-04-30 18:21 | 54.57306 | 46.32260 | 19629 ft | 349 kts | 172° |
| 2026-04-30 18:21 | 54.54900 | 46.32912 | 19223 ft | 347 kts | 172° |
| 2026-04-30 18:21 | 54.52545 | 46.33552 | 18899 ft | 342 kts | 172° |
| 2026-04-30 18:21 | 54.50203 | 46.34189 | 19068 ft | 345 kts | 172° |
| 2026-04-30 18:22 | 54.47815 | 46.34833 | 18645 ft | 356 kts | 172° |
| 2026-04-30 18:22 | 54.42894 | 46.36165 | 17598 ft | 357 kts | 172° |
| 2026-04-30 18:22 | 54.40488 | 46.36817 | 17015 ft | 343 kts | 172° |
| 2026-04-30 18:23 | 54.38190 | 46.37444 | 16444 ft | 330 kts | 172° |
| 2026-04-30 18:23 | 54.35947 | 46.38058 | 15887 ft | 326 kts | 172° |
| 2026-04-30 18:23 | 54.33715 | 46.38667 | 15381 ft | 331 kts | 172° |
| 2026-04-30 18:23 | 54.31432 | 46.39289 | 14841 ft | 334 kts | 172° |
| 2026-04-30 18:24 | 54.26832 | 46.40540 | 13767 ft | 338 kts | 172° |
| 2026-04-30 18:24 | 54.24512 | 46.41171 | 13254 ft | 338 kts | 172° |
| 2026-04-30 18:24 | 54.22203 | 46.41798 | 12764 ft | 338 kts | 172° |
| 2026-04-30 18:25 | 54.19899 | 46.42424 | 12269 ft | 338 kts | 172° |
| 2026-04-30 18:25 | 54.15247 | 46.43682 | 11266 ft | 337 kts | 172° |
| 2026-04-30 18:25 | 54.12949 | 46.44296 | 10773 ft | 337 kts | 172° |
| 2026-04-30 18:26 | 54.08383 | 46.45504 | 10128 ft | 323 kts | 172° |
| 2026-04-30 18:26 | 54.06197 | 46.46084 | 10082 ft | 308 kts | 171° |
| 2026-04-30 18:26 | 54.04153 | 46.46629 | 10085 ft | 295 kts | 171° |
| 2026-04-30 18:27 | 54.00921 | 46.50288 | 10092 ft | 291 kts | 115° |
| 2026-04-30 18:27 | 54.00035 | 46.53411 | 10112 ft | 297 kts | 113° |
| 2026-04-30 18:28 | 53.98284 | 46.59655 | 10106 ft | 295 kts | 113° |
| 2026-04-30 18:28 | 53.97410 | 46.62770 | 10104 ft | 294 kts | 113° |
| 2026-04-30 18:28 | 53.95652 | 46.69025 | 10102 ft | 294 kts | 114° |
| 2026-04-30 18:29 | 53.94760 | 46.72193 | 10193 ft | 291 kts | 114° |
| 2026-04-30 18:29 | 53.92359 | 46.80712 | 8995 ft | 287 kts | 114° |
| 2026-04-30 18:30 | 53.90996 | 46.85547 | 8065 ft | 275 kts | 114° |
| 2026-04-30 18:30 | 53.89204 | 46.91895 | 7107 ft | 266 kts | 115° |
| 2026-04-30 18:31 | 53.88610 | 46.93995 | 7123 ft | 269 kts | 115° |
| 2026-04-30 18:31 | 53.87614 | 46.97512 | 7105 ft | 270 kts | 115° |
| 2026-04-30 18:32 | 53.86219 | 47.02431 | 7100 ft | 269 kts | 115° |
| 2026-04-30 18:32 | 53.85438 | 47.05180 | 7100 ft | 269 kts | 115° |
| 2026-04-30 18:32 | 53.84288 | 47.09225 | 7100 ft | 269 kts | 115° |
| 2026-04-30 18:33 | 53.83787 | 47.10888 | 7098 ft | 269 kts | 120° |
| 2026-04-30 18:33 | 53.82301 | 47.14033 | 7111 ft | 270 kts | 135° |
| 2026-04-30 18:33 | 53.81432 | 47.15401 | 7098 ft | 267 kts | 139° |
| 2026-04-30 18:34 | 53.80627 | 47.16547 | 7084 ft | 259 kts | 140° |
| 2026-04-30 18:34 | 53.79522 | 47.21214 | 7074 ft | 245 kts | 75° |
| 2026-04-30 18:34 | 53.80371 | 47.23840 | 7136 ft | 249 kts | 51° |
| 2026-04-30 18:35 | 53.81476 | 47.26104 | 7127 ft | 251 kts | 49° |
| 2026-04-30 18:35 | 53.82629 | 47.28334 | 7115 ft | 249 kts | 47° |
| 2026-04-30 18:35 | 53.83789 | 47.30517 | 7105 ft | 249 kts | 47° |
| 2026-04-30 18:36 | 53.86123 | 47.34829 | 7101 ft | 249 kts | 46° |
| 2026-04-30 18:36 | 53.87293 | 47.36974 | 7043 ft | 251 kts | 46° |
| 2026-04-30 18:36 | 53.89687 | 47.41357 | 6142 ft | 250 kts | 46° |
| 2026-04-30 18:37 | 53.90837 | 47.43461 | 5731 ft | 242 kts | 46° |
| 2026-04-30 18:37 | 53.91984 | 47.45562 | 5313 ft | 240 kts | 46° |
| 2026-04-30 18:37 | 53.93108 | 47.47623 | 4931 ft | 242 kts | 46° |
| 2026-04-30 18:37 | 53.94247 | 47.49715 | 4935 ft | 240 kts | 46° |
| 2026-04-30 18:38 | 53.95380 | 47.51796 | 4911 ft | 239 kts | 46° |
| 2026-04-30 18:38 | 53.96500 | 47.53855 | 4912 ft | 241 kts | 46° |
| 2026-04-30 18:38 | 53.97650 | 47.55969 | 4909 ft | 241 kts | 46° |
| 2026-04-30 18:38 | 53.98784 | 47.58051 | 4908 ft | 241 kts | 46° |
| 2026-04-30 18:39 | 53.99931 | 47.60160 | 4909 ft | 241 kts | 46° |
| 2026-04-30 18:39 | 54.01063 | 47.62246 | 4909 ft | 241 kts | 46° |
| 2026-04-30 18:39 | 54.02194 | 47.64334 | 4909 ft | 241 kts | 46° |
| 2026-04-30 18:39 | 54.03328 | 47.66428 | 4909 ft | 241 kts | 47° |
| 2026-04-30 18:40 | 54.04460 | 47.68521 | 4909 ft | 241 kts | 47° |
| 2026-04-30 18:40 | 54.05601 | 47.70632 | 4909 ft | 241 kts | 47° |
| 2026-04-30 18:40 | 54.06704 | 47.72675 | 4906 ft | 239 kts | 47° |
| 2026-04-30 18:40 | 54.07809 | 47.74723 | 4892 ft | 226 kts | 47° |
| 2026-04-30 18:41 | 54.08845 | 47.76643 | 4867 ft | 215 kts | 47° |
| 2026-04-30 18:41 | 54.09813 | 47.78439 | 4914 ft | 202 kts | 47° |
| 2026-04-30 18:41 | 54.10745 | 47.80172 | 4911 ft | 206 kts | 47° |
| 2026-04-30 18:41 | 54.11740 | 47.82024 | 4542 ft | 212 kts | 47° |
| 2026-04-30 18:42 | 54.12605 | 47.83632 | 4265 ft | 205 kts | 47° |
| 2026-04-30 18:42 | 54.14315 | 47.86817 | 3791 ft | 205 kts | 47° |
| 2026-04-30 18:42 | 54.15175 | 47.88421 | 3567 ft | 206 kts | 47° |
| 2026-04-30 18:45 | 54.12493 | 48.06404 | 1990 ft | 175 kts | 64° |
| 2026-04-30 18:45 | 54.13152 | 48.08155 | 1994 ft | 178 kts | 39° |
| 2026-04-30 18:45 | 54.14245 | 48.09154 | 2055 ft | 180 kts | 27° |
| 2026-04-30 18:46 | 54.15350 | 48.10183 | 2015 ft | 181 kts | 30° |
| 2026-04-30 18:46 | 54.16427 | 48.11265 | 2010 ft | 181 kts | 31° |
| 2026-04-30 18:46 | 54.17503 | 48.12386 | 2006 ft | 181 kts | 32° |
| 2026-04-30 18:46 | 54.18581 | 48.13528 | 2004 ft | 181 kts | 32° |
| 2026-04-30 18:47 | 54.19649 | 48.14665 | 1944 ft | 183 kts | 32° |
| 2026-04-30 18:47 | 54.20694 | 48.15782 | 1680 ft | 172 kts | 32° |
| 2026-04-30 18:47 | 54.21649 | 48.16802 | 1453 ft | 155 kts | 32° |
| 2026-04-30 18:47 | 54.22496 | 48.17710 | 1250 ft | 149 kts | 32° |
| 2026-04-30 18:48 | 54.23385 | 48.18662 | 1084 ft | 152 kts | 32° |
| 2026-04-30 18:48 | 54.24314 | 48.19643 | 879 ft | 157 kts | 30° |
| 2026-04-30 18:48 | 54.25234 | 48.20619 | 665 ft | 156 kts | 32° |
| 2026-04-30 18:48 | 54.26133 | 48.21590 | 469 ft | 150 kts | 32° |
| 2026-04-30 18:49 | 54.26922 | 48.22442 | 467 ft | 111 kts | 32° |
| 2026-04-30 18:49 | 54.27413 | 48.22969 | 466 ft | 57 kts | 33° |
| 2026-04-30 18:49 | 54.27626 | 48.23203 | 466 ft | 15 kts | 31° |
| 2026-04-30 18:49 | 54.27679 | 48.23258 | 466 ft | 15 kts | 32° |
| 2026-04-30 18:50 | 54.27827 | 48.23418 | 466 ft | 35 kts | 31° |
| 2026-04-30 18:50 | 54.28078 | 48.23685 | 466 ft | 47 kts | 33° |
| 2026-04-30 18:50 | 54.28277 | 48.23872 | 466 ft | 21 kts | 349° |
| 2026-04-30 18:50 | 54.28350 | 48.23719 | 466 ft | 10 kts | 301° |
| 2026-04-30 18:51 | 54.28359 | 48.23694 | 466 ft | 0 kts | 302° |
| 2026-04-30 18:51 | 54.28380 | 48.23638 | 466 ft | 15 kts | 303° |
| 2026-04-30 18:52 | 54.28451 | 48.23448 | 466 ft | 21 kts | 303° |
| 2026-04-30 18:52 | 54.28482 | 48.23359 | 466 ft | 0 kts | 303° |
| 2026-04-30 18:52 | 54.28484 | 48.23354 | 466 ft | 3 kts | 306° |
| 2026-04-30 18:52 | 54.28516 | 48.23341 | 466 ft | 6 kts | 20° |
| 2026-04-30 18:53 | 54.28543 | 48.23317 | 466 ft | 0 kts | 305° |